Terminal Aerodrome Forecast
Issued by NWS Grand Rapids, MI

Home | Current Version | Previous Version | Text Only | Print | Product List | Glossary On
Versions: 1 2 3 4 5 6 7 8 9 10 11 12 13 14 15 16 17 18 19 20 21 22 23 24
000
FTUS43 KGRR 312300
TAFGRR
TAF
KGRR 312340Z 0100/0124 30006KT P6SM OVC025
     FM010600 04008KT 4SM -SN OVC015
     FM010900 04011KT 2SM -SN OVC008
     FM011300 06016G28KT 3/4SM -SN BLSN OVC008=

USA.gov is the U.S. government's official web portal to all federal, state and local government web resources and services.